createdAt,value
2023-02-23T00:00:04.937Z,99062.83
2023-02-23T00:02:15.961Z,99062.25
2023-02-23T00:04:21.060Z,99059.27
2023-02-23T00:06:27.289Z,99062.31
2023-02-23T00:08:32.005Z,99062.11
2023-02-23T00:10:36.658Z,99059.09
2023-02-23T00:12:42.011Z,99058.51
2023-02-23T00:14:46.654Z,99057.48
2023-02-23T00:16:51.336Z,99054.52
2023-02-23T00:18:58.744Z,99057.20
2023-02-23T00:21:03.633Z,99057.23
2023-02-23T00:23:08.845Z,99060.04
2023-02-23T00:25:13.544Z,99057.96
2023-02-23T00:27:18.218Z,99056.25
2023-02-23T00:29:25.679Z,99056.77
2023-02-23T00:31:32.363Z,99054.83
2023-02-23T00:33:37.420Z,99054.69
2023-02-23T00:35:42.140Z,99052.88
2023-02-23T00:37:48.587Z,99054.22
2023-02-23T00:39:54.880Z,99053.38
2023-02-23T00:42:06.014Z,99052.84
2023-02-23T00:44:17.049Z,99049.35
2023-02-23T00:46:23.771Z,99050.11
2023-02-23T00:48:28.459Z,99051.16
2023-02-23T00:50:33.691Z,99052.20
2023-02-23T00:52:39.079Z,99050.18
2023-02-23T00:54:43.885Z,99050.84
2023-02-23T00:56:48.952Z,99050.58
2023-02-23T00:58:53.768Z,99050.84
2023-02-23T01:00:59.193Z,99049.39
2023-02-23T01:03:04.053Z,99049.98
2023-02-23T01:05:10.022Z,99048.71
2023-02-23T01:07:14.714Z,99044.98
2023-02-23T01:09:19.492Z,99042.19
2023-02-23T01:11:29.167Z,99044.39
2023-02-23T01:13:33.998Z,99044.83
2023-02-23T01:15:44.436Z,99041.00
2023-02-23T01:17:49.273Z,99040.47
2023-02-23T01:19:54.000Z,99037.95
2023-02-23T01:21:58.686Z,99035.86
2023-02-23T01:24:04.767Z,99036.42
2023-02-23T01:26:18.611Z,99035.30
2023-02-23T01:28:23.326Z,99034.92
2023-02-23T01:30:28.447Z,99032.77
2023-02-23T01:32:34.268Z,99030.15
2023-02-23T01:34:39.096Z,99032.88
2023-02-23T01:36:45.913Z,99028.14
2023-02-23T01:38:51.313Z,99027.55
2023-02-23T01:40:56.249Z,99029.73
2023-02-23T01:43:14.729Z,99026.69
2023-02-23T01:45:31.465Z,99026.73
2023-02-23T01:47:38.821Z,99019.59
2023-02-23T01:49:43.795Z,99019.35
2023-02-23T01:51:54.793Z,99019.74
2023-02-23T01:54:04.726Z,99017.75
2023-02-23T01:56:14.697Z,99018.19
2023-02-23T01:58:22.241Z,99019.94
2023-02-23T02:00:30.435Z,99014.43
2023-02-23T02:02:38.184Z,99016.64
2023-02-23T02:04:44.087Z,99012.03
2023-02-23T02:06:52.813Z,99012.77
2023-02-23T02:09:02.796Z,99011.98
2023-02-23T02:11:07.664Z,99014.52
2023-02-23T02:13:17.115Z,99011.02
2023-02-23T02:15:23.983Z,99006.26
2023-02-23T02:17:39.998Z,99010.66
2023-02-23T02:20:22.897Z,99009.31
2023-02-23T02:22:54.493Z,99005.12
2023-02-23T02:25:27.420Z,99005.61
2023-02-23T02:27:54.674Z,99007.03
2023-02-23T02:30:26.940Z,99009.11
2023-02-23T02:32:52.344Z,99005.02
2023-02-23T02:35:23.448Z,99004.87
2023-02-23T02:37:52.943Z,99001.11
2023-02-23T02:40:06.486Z,99004.08
2023-02-23T02:42:22.120Z,99003.71
2023-02-23T02:44:37.380Z,99001.52
2023-02-23T02:46:46.272Z,98998.61
2023-02-23T02:48:59.533Z,99002.58
2023-02-23T02:51:13.953Z,99002.17
2023-02-23T02:53:25.922Z,99001.83
2023-02-23T02:55:33.510Z,99002.77
2023-02-23T02:57:39.406Z,99002.62
2023-02-23T02:59:49.187Z,99008.33
2023-02-23T03:01:54.372Z,99009.57
2023-02-23T03:04:04.951Z,99007.89
2023-02-23T03:06:09.734Z,99009.48
2023-02-23T03:08:24.837Z,99013.48
2023-02-23T03:10:39.597Z,99009.99
2023-02-23T03:13:01.144Z,99014.21
2023-02-23T03:15:18.336Z,99011.77
2023-02-23T03:17:32.281Z,99011.04
2023-02-23T03:19:47.430Z,99012.07
2023-02-23T03:22:02.041Z,99015.36
2023-02-23T03:24:17.985Z,99013.84
2023-02-23T03:26:29.358Z,99021.28
2023-02-23T03:28:40.156Z,99020.67
2023-02-23T03:30:59.535Z,99022.01
2023-02-23T03:33:10.514Z,99024.64
2023-02-23T03:35:21.624Z,99018.45
2023-02-23T03:37:34.759Z,99023.10
2023-02-23T03:39:45.724Z,99025.02
2023-02-23T03:41:53.523Z,99025.16
2023-02-23T03:44:03.309Z,99024.19
2023-02-23T03:46:12.649Z,99027.26
2023-02-23T03:48:20.062Z,99031.23
2023-02-23T03:50:33.814Z,99028.89
2023-02-23T03:52:45.140Z,99032.63
2023-02-23T03:54:57.402Z,99033.84
2023-02-23T03:57:05.875Z,99032.61
2023-02-23T03:59:15.536Z,99030.64
2023-02-23T04:01:21.872Z,99036.32
2023-02-23T04:03:29.062Z,99032.39
2023-02-23T04:05:35.381Z,99039.90
2023-02-23T04:07:41.038Z,99041.15
2023-02-23T04:09:46.091Z,99041.48
2023-02-23T04:11:56.432Z,99044.17
2023-02-23T04:14:06.324Z,99043.77
2023-02-23T04:16:12.388Z,99041.21
2023-02-23T04:18:21.105Z,99042.02
2023-02-23T04:20:27.115Z,99043.24
2023-02-23T04:22:34.683Z,99046.65
2023-02-23T04:24:39.421Z,99047.74
2023-02-23T04:26:44.102Z,99046.09
2023-02-23T04:28:48.793Z,99047.42
2023-02-23T04:30:53.952Z,99047.33
2023-02-23T04:32:58.977Z,99048.02
2023-02-23T04:35:07.373Z,99047.04
2023-02-23T04:37:12.858Z,99044.67
2023-02-23T04:39:17.552Z,99046.70
2023-02-23T04:41:22.314Z,99047.31
2023-02-23T04:43:28.331Z,99051.09
2023-02-23T04:45:33.373Z,99051.96
2023-02-23T04:47:38.111Z,99053.35
2023-02-23T04:49:42.967Z,99053.13
2023-02-23T04:51:47.597Z,99051.98
2023-02-23T04:53:52.338Z,99051.08
2023-02-23T04:55:59.888Z,99048.17
2023-02-23T04:58:07.615Z,99048.56
2023-02-23T05:00:13.850Z,99048.49
2023-02-23T05:02:18.629Z,99048.73
2023-02-23T05:04:23.911Z,99049.17
2023-02-23T05:06:28.664Z,99048.56
2023-02-23T05:08:33.693Z,99049.77
2023-02-23T05:10:40.276Z,99046.04
2023-02-23T05:12:48.234Z,99049.11
2023-02-23T05:14:52.868Z,99041.95
2023-02-23T05:16:57.581Z,99042.50
2023-02-23T05:19:02.291Z,99048.08
2023-02-23T05:21:09.956Z,99046.30
2023-02-23T05:23:14.684Z,99043.13
2023-02-23T05:25:19.484Z,99043.82
2023-02-23T05:27:24.185Z,99046.77
2023-02-23T05:29:28.918Z,99043.42
2023-02-23T05:31:33.874Z,99048.04
2023-02-23T05:33:39.410Z,99044.80
2023-02-23T05:35:44.136Z,99048.29
2023-02-23T05:37:51.896Z,99047.42
2023-02-23T05:39:56.656Z,99047.73
2023-02-23T05:42:01.410Z,99054.00
2023-02-23T05:44:06.262Z,99050.55
2023-02-23T05:46:12.919Z,99054.41
2023-02-23T05:48:17.966Z,99055.48
2023-02-23T05:50:22.864Z,99054.50
2023-02-23T05:52:27.644Z,99057.62
2023-02-23T05:54:32.571Z,99060.77
2023-02-23T05:56:37.219Z,99061.30
2023-02-23T05:58:41.922Z,99064.34
2023-02-23T06:00:46.674Z,99064.13
2023-02-23T06:02:51.420Z,99068.52
2023-02-23T06:04:56.500Z,99072.36
2023-02-23T06:07:01.281Z,99073.61
2023-02-23T06:09:06.440Z,99081.58
2023-02-23T06:11:11.375Z,99078.11
2023-02-23T06:13:21.899Z,99082.45
2023-02-23T06:15:28.553Z,99086.05
2023-02-23T06:17:35.147Z,99087.23
2023-02-23T06:19:39.922Z,99092.05
2023-02-23T06:21:46.126Z,99091.86
2023-02-23T06:23:50.935Z,99093.23
2023-02-23T06:25:55.763Z,99096.42
2023-02-23T06:28:00.620Z,99100.57
2023-02-23T06:30:06.353Z,99102.25
2023-02-23T06:32:11.122Z,99104.69
2023-02-23T06:34:22.935Z,99105.97
2023-02-23T06:36:27.826Z,99104.81
2023-02-23T06:38:32.527Z,99106.66
2023-02-23T06:40:39.169Z,99107.77
2023-02-23T06:42:43.852Z,99111.39
2023-02-23T06:44:49.597Z,99109.11
2023-02-23T06:46:54.311Z,99110.42
2023-02-23T06:48:59.201Z,99111.99
2023-02-23T06:51:04.230Z,99113.66
2023-02-23T06:53:20.967Z,99111.80
2023-02-23T06:55:34.453Z,99108.31
2023-02-23T06:57:39.201Z,99114.19
2023-02-23T06:59:43.938Z,99114.52
2023-02-23T07:01:49.162Z,99115.04
2023-02-23T07:03:53.933Z,99118.54
2023-02-23T07:06:01.718Z,99120.25
2023-02-23T07:08:07.006Z,99122.31
2023-02-23T07:10:16.752Z,99122.48
2023-02-23T07:12:21.486Z,99125.36
2023-02-23T07:14:27.182Z,99127.39
2023-02-23T07:16:32.069Z,99127.81
2023-02-23T07:18:36.900Z,99127.73
2023-02-23T07:20:41.728Z,99127.68
2023-02-23T07:22:46.479Z,99126.84
2023-02-23T07:24:51.208Z,99129.05
2023-02-23T07:26:57.111Z,99128.49
2023-02-23T07:29:02.840Z,99131.13
2023-02-23T07:31:07.736Z,99130.91
2023-02-23T07:33:12.440Z,99129.82
2023-02-23T07:35:17.186Z,99130.52
2023-02-23T07:37:21.895Z,99133.92
2023-02-23T07:39:26.780Z,99130.21
2023-02-23T07:41:34.456Z,99134.18
2023-02-23T07:43:39.198Z,99135.77
2023-02-23T07:45:46.388Z,99133.83
2023-02-23T07:47:54.241Z,99133.65
2023-02-23T07:49:59.765Z,99137.15
2023-02-23T07:52:04.916Z,99137.21
2023-02-23T07:54:09.830Z,99139.53
2023-02-23T07:56:15.039Z,99138.73
2023-02-23T07:58:19.707Z,99136.70
2023-02-23T08:00:25.394Z,99136.92
2023-02-23T08:02:30.214Z,99137.81
2023-02-23T08:04:35.007Z,99138.53
2023-02-23T08:06:39.787Z,99139.80
2023-02-23T08:08:44.730Z,99138.84
2023-02-23T08:10:50.118Z,99140.80
2023-02-23T08:12:54.797Z,99136.05
2023-02-23T08:15:02.680Z,99139.52
2023-02-23T08:17:07.400Z,99142.96
2023-02-23T08:19:12.103Z,99142.17
2023-02-23T08:21:16.943Z,99141.78
2023-02-23T08:23:21.811Z,99141.08
2023-02-23T08:25:29.370Z,99143.49
2023-02-23T08:27:35.667Z,99142.29
2023-02-23T08:29:40.619Z,99143.58
2023-02-23T08:31:48.338Z,99140.45
2023-02-23T08:33:53.684Z,99137.27
2023-02-23T08:36:03.410Z,99136.63
2023-02-23T08:38:08.078Z,99139.56
2023-02-23T08:40:14.658Z,99140.52
2023-02-23T08:42:19.388Z,99139.86
2023-02-23T08:44:24.245Z,99142.89
2023-02-23T08:46:29.980Z,99143.33
2023-02-23T08:48:35.129Z,99143.14
2023-02-23T08:50:39.889Z,99144.23
2023-02-23T08:52:44.724Z,99143.70
2023-02-23T08:54:49.566Z,99142.36
2023-02-23T08:56:57.131Z,99145.33
2023-02-23T08:59:01.854Z,99145.23
2023-02-23T09:01:15.414Z,99146.59
2023-02-23T09:03:20.629Z,99141.80
2023-02-23T09:05:25.412Z,99141.07
2023-02-23T09:07:30.167Z,99143.85
2023-02-23T09:09:34.840Z,99143.00
2023-02-23T09:11:40.597Z,99146.20
2023-02-23T09:13:45.796Z,99148.48
2023-02-23T09:15:50.529Z,99146.48
2023-02-23T09:17:55.248Z,99148.92
2023-02-23T09:19:59.902Z,99149.24
2023-02-23T09:22:07.875Z,99145.80
2023-02-23T09:24:12.599Z,99150.55
2023-02-23T09:26:17.988Z,99146.98
2023-02-23T09:28:22.997Z,99147.71
2023-02-23T09:30:28.412Z,99154.70
2023-02-23T09:32:33.174Z,99150.31
2023-02-23T09:34:38.148Z,99151.61
2023-02-23T09:36:43.326Z,99152.73
2023-02-23T09:38:52.748Z,99154.33
2023-02-23T09:40:57.521Z,99151.98
2023-02-23T09:43:05.985Z,99150.30
2023-02-23T09:45:23.605Z,99151.60
2023-02-23T09:47:38.922Z,99150.20
2023-02-23T09:49:49.010Z,99147.11
2023-02-23T09:51:58.042Z,99144.52
2023-02-23T09:54:03.661Z,99141.98
2023-02-23T09:56:14.538Z,99148.09
2023-02-23T09:58:23.599Z,99142.75
2023-02-23T10:00:28.873Z,99141.23
2023-02-23T10:02:46.022Z,99140.37
2023-02-23T10:04:58.450Z,99150.09
2023-02-23T10:07:09.544Z,99147.10
2023-02-23T10:09:23.881Z,99145.23
2023-02-23T10:11:36.906Z,99139.77
2023-02-23T10:13:51.499Z,99144.33
2023-02-23T10:16:02.943Z,99140.95
2023-02-23T10:18:20.558Z,99141.34
2023-02-23T10:20:33.070Z,99140.55
2023-02-23T10:22:39.274Z,99138.78
2023-02-23T10:24:47.154Z,99136.69
2023-02-23T10:26:54.490Z,99138.15
2023-02-23T10:29:00.186Z,99138.23
2023-02-23T10:31:16.752Z,99136.36
2023-02-23T10:33:26.935Z,99130.16
2023-02-23T10:35:31.777Z,99133.47
2023-02-23T10:37:37.654Z,99129.48
2023-02-23T10:39:43.152Z,99130.64
2023-02-23T10:41:47.857Z,99127.55
2023-02-23T10:43:52.627Z,99126.03
2023-02-23T10:46:00.383Z,99123.33
2023-02-23T10:48:08.415Z,99121.98
2023-02-23T10:50:15.823Z,99121.95
2023-02-23T10:52:27.495Z,99120.75
2023-02-23T10:54:43.938Z,99115.48
2023-02-23T10:56:48.937Z,99113.25
2023-02-23T10:58:56.280Z,99110.45
2023-02-23T11:01:03.601Z,99108.02
2023-02-23T11:03:22.787Z,99101.59
2023-02-23T11:05:37.616Z,99099.12
2023-02-23T11:07:42.465Z,99099.93
2023-02-23T11:09:49.590Z,99100.61
2023-02-23T11:12:01.939Z,99097.48
2023-02-23T11:14:17.512Z,99097.61
2023-02-23T11:16:23.904Z,99095.34
2023-02-23T11:18:29.419Z,99095.87
2023-02-23T11:20:36.602Z,99088.64
2023-02-23T11:22:43.172Z,99087.33
2023-02-23T11:24:47.971Z,99085.02
2023-02-23T11:26:55.182Z,99078.79
2023-02-23T11:29:02.908Z,99079.16
2023-02-23T11:31:15.600Z,99072.54
2023-02-23T11:33:23.905Z,99068.09
2023-02-23T11:35:31.398Z,99067.10
2023-02-23T11:37:36.390Z,99060.71
2023-02-23T11:39:53.445Z,99062.27
2023-02-23T11:42:15.562Z,99060.09
2023-02-23T11:44:23.347Z,99057.73
2023-02-23T11:46:30.329Z,99052.20
2023-02-23T11:48:41.702Z,99047.69
2023-02-23T11:50:49.101Z,99051.36
2023-02-23T11:53:00.177Z,99048.37
2023-02-23T11:55:15.754Z,99043.08
2023-02-23T11:57:25.142Z,99041.14
2023-02-23T11:59:32.779Z,99043.66
2023-02-23T12:01:41.765Z,99039.13
2023-02-23T12:03:51.296Z,99033.15
2023-02-23T12:05:58.608Z,99031.29
2023-02-23T12:08:07.433Z,99034.39
2023-02-23T12:10:23.906Z,99035.41
2023-02-23T12:12:32.012Z,99036.27
2023-02-23T12:14:46.166Z,99034.42
2023-02-23T12:16:55.496Z,99031.30
2023-02-23T12:19:12.694Z,99030.94
2023-02-23T12:21:29.852Z,99035.55
2023-02-23T12:23:35.899Z,99035.95
2023-02-23T12:25:47.528Z,99036.20
2023-02-23T12:28:07.637Z,99033.86
2023-02-23T12:30:23.293Z,99026.86
2023-02-23T12:32:34.831Z,99026.60
2023-02-23T12:34:48.041Z,99023.97
2023-02-23T12:36:59.393Z,99015.64
2023-02-23T12:39:12.088Z,99014.00
2023-02-23T12:41:21.271Z,99015.27
2023-02-23T12:43:32.523Z,99009.44
2023-02-23T12:45:46.127Z,99006.42
2023-02-23T12:47:59.664Z,99000.34
2023-02-23T12:50:18.496Z,98999.11
2023-02-23T12:52:29.121Z,98996.30
2023-02-23T12:54:34.191Z,98997.88
2023-02-23T12:56:51.187Z,98994.59
2023-02-23T12:59:07.098Z,98993.27
2023-02-23T13:01:16.811Z,98991.39
2023-02-23T13:03:45.268Z,98988.86
2023-02-23T13:05:56.738Z,98987.92
2023-02-23T13:08:13.874Z,98983.99
2023-02-23T13:10:29.194Z,98984.00
2023-02-23T13:12:48.755Z,98980.00
2023-02-23T13:15:02.934Z,98977.80
2023-02-23T13:17:25.441Z,98970.77
2023-02-23T13:19:37.781Z,98973.26
2023-02-23T13:21:49.050Z,98975.80
2023-02-23T13:24:01.856Z,98972.88
2023-02-23T13:26:18.833Z,98973.96
2023-02-23T13:28:37.152Z,98972.27
2023-02-23T13:30:42.521Z,98976.07
2023-02-23T13:32:50.362Z,98978.60
2023-02-23T13:34:58.713Z,98979.56
2023-02-23T13:37:07.318Z,98975.40
2023-02-23T13:39:32.815Z,98981.42
2023-02-23T13:41:43.054Z,98977.48
2023-02-23T13:43:56.543Z,98976.20
2023-02-23T13:46:15.012Z,98980.14
2023-02-23T13:48:30.482Z,98981.23
2023-02-23T13:50:43.375Z,98978.39
2023-02-23T13:52:50.184Z,98975.89
2023-02-23T13:54:57.319Z,98976.17
2023-02-23T13:57:04.368Z,98975.52
2023-02-23T13:59:17.884Z,98973.90
2023-02-23T14:01:29.381Z,98973.81
2023-02-23T14:03:41.155Z,98971.29
2023-02-23T14:05:46.873Z,98966.08
2023-02-23T14:07:54.579Z,98962.58
2023-02-23T14:10:04.467Z,98963.67
2023-02-23T14:12:17.486Z,98966.70
2023-02-23T14:14:43.169Z,98965.52
2023-02-23T14:17:11.892Z,98961.60
2023-02-23T14:19:37.950Z,98960.20
2023-02-23T14:21:50.082Z,98956.78
2023-02-23T14:24:05.134Z,98955.10
2023-02-23T14:26:35.314Z,98955.80
2023-02-23T14:28:41.813Z,98952.72
2023-02-23T14:30:47.868Z,98953.17
2023-02-23T14:32:52.782Z,98950.61
2023-02-23T14:34:59.462Z,98949.52
2023-02-23T14:37:18.167Z,98951.25
2023-02-23T14:39:28.512Z,98947.40
2023-02-23T14:41:42.334Z,98946.06
2023-02-23T14:43:57.854Z,98942.24
2023-02-23T14:46:03.454Z,98942.95
2023-02-23T14:48:11.288Z,98940.67
2023-02-23T14:50:24.472Z,98938.53
2023-02-23T14:52:33.394Z,98941.73
2023-02-23T14:54:39.417Z,98938.61
2023-02-23T14:56:53.259Z,98937.80
2023-02-23T14:59:00.305Z,98938.49
2023-02-23T15:01:08.616Z,98934.16
2023-02-23T15:03:13.291Z,98932.62
2023-02-23T15:05:19.012Z,98934.77
2023-02-23T15:07:31.714Z,98931.64
2023-02-23T15:09:39.510Z,98931.36
2023-02-23T15:11:44.420Z,98926.53
2023-02-23T15:13:52.201Z,98931.25
2023-02-23T15:16:01.945Z,98928.48
2023-02-23T15:18:37.147Z,98926.59
2023-02-23T15:21:01.030Z,98931.20
2023-02-23T15:23:06.416Z,98925.25
2023-02-23T15:25:17.054Z,98926.70
2023-02-23T15:27:24.168Z,98926.79
2023-02-23T15:29:33.398Z,98926.42
2023-02-23T15:31:38.662Z,98924.72
2023-02-23T15:33:43.452Z,98926.44
2023-02-23T15:35:54.882Z,98928.08
2023-02-23T15:38:13.619Z,98925.77
2023-02-23T15:40:22.158Z,98923.13
2023-02-23T15:42:31.938Z,98919.34
2023-02-23T15:44:44.111Z,98919.87
2023-02-23T15:46:53.830Z,98917.27
2023-02-23T15:49:01.710Z,98914.50
2023-02-23T15:51:07.188Z,98914.25
2023-02-23T15:53:23.946Z,98916.48
2023-02-23T15:55:32.734Z,98917.26
2023-02-23T15:57:48.108Z,98921.27
2023-02-23T15:59:57.139Z,98921.03
2023-02-23T16:02:04.116Z,98916.48
2023-02-23T16:04:14.775Z,98915.96
2023-02-23T16:06:26.794Z,98913.21
2023-02-23T16:08:31.664Z,98911.78
2023-02-23T16:11:02.146Z,98907.98
2023-02-23T16:13:07.776Z,98907.88
2023-02-23T16:15:24.382Z,98912.69
2023-02-23T16:17:35.057Z,98909.48
2023-02-23T16:19:42.010Z,98912.82
2023-02-23T16:21:51.381Z,98914.19
2023-02-23T16:23:57.871Z,98910.89
2023-02-23T16:26:06.621Z,98914.77
2023-02-23T16:28:17.855Z,98915.64
2023-02-23T16:30:34.971Z,98913.00
2023-02-23T16:32:43.986Z,98913.44
2023-02-23T16:34:55.917Z,98911.11
2023-02-23T16:37:03.467Z,98910.52
2023-02-23T16:39:13.789Z,98909.04
2023-02-23T16:41:22.354Z,98908.73
2023-02-23T16:43:28.800Z,98914.09
2023-02-23T16:45:37.945Z,98913.72
2023-02-23T16:47:46.352Z,98915.93
2023-02-23T16:49:52.502Z,98914.06
2023-02-23T16:52:00.592Z,98917.02
2023-02-23T16:54:06.289Z,98911.73
2023-02-23T16:56:13.510Z,98916.20
2023-02-23T16:58:22.055Z,98912.60
2023-02-23T17:00:31.948Z,98918.74
2023-02-23T17:02:36.903Z,98920.41
2023-02-23T17:04:44.193Z,98924.13
2023-02-23T17:06:50.652Z,98925.95
2023-02-23T17:08:58.815Z,98925.60
2023-02-23T17:11:06.728Z,98924.34
2023-02-23T17:13:20.083Z,98927.61
2023-02-23T17:15:27.817Z,98927.76
2023-02-23T17:17:33.458Z,98927.54
2023-02-23T17:19:39.056Z,98922.48
2023-02-23T17:21:47.137Z,98921.67
2023-02-23T17:23:53.713Z,98922.67
2023-02-23T17:26:01.030Z,98923.02
2023-02-23T17:28:07.156Z,98924.60
2023-02-23T17:30:15.222Z,98926.69
2023-02-23T17:32:25.323Z,98924.30
2023-02-23T17:34:31.846Z,98927.42
2023-02-23T17:36:36.988Z,98927.55
2023-02-23T17:38:44.297Z,98928.23
2023-02-23T17:40:53.513Z,98926.77
2023-02-23T17:43:04.399Z,98925.96
2023-02-23T17:45:16.937Z,98921.34
2023-02-23T17:47:23.498Z,98925.33
2023-02-23T17:49:29.233Z,98924.77
2023-02-23T17:51:35.488Z,98924.07
2023-02-23T17:53:41.376Z,98921.00
2023-02-23T17:55:48.435Z,98928.11
2023-02-23T17:57:55.000Z,98928.58
2023-02-23T18:00:01.289Z,98925.81
2023-02-23T18:02:19.768Z,98925.27
2023-02-23T18:04:29.956Z,98924.15
2023-02-23T18:06:36.526Z,98918.45
2023-02-23T18:08:43.804Z,98917.20
2023-02-23T18:10:54.766Z,98919.92
2023-02-23T18:13:00.827Z,98920.00
2023-02-23T18:15:08.517Z,98919.70
2023-02-23T18:17:15.424Z,98918.72
2023-02-23T18:19:22.575Z,98915.48
2023-02-23T18:21:30.064Z,98913.68
2023-02-23T18:23:36.110Z,98912.85
2023-02-23T18:25:45.257Z,98913.69
2023-02-23T18:27:57.848Z,98914.80
2023-02-23T18:30:06.338Z,98914.23
2023-02-23T18:32:16.817Z,98912.69
2023-02-23T18:34:23.527Z,98912.53
2023-02-23T18:36:30.692Z,98913.84
2023-02-23T18:38:42.219Z,98913.89
2023-02-23T18:40:50.847Z,98912.57
2023-02-23T18:43:00.807Z,98914.47
2023-02-23T18:45:09.107Z,98909.13
2023-02-23T18:47:16.215Z,98910.21
2023-02-23T18:49:26.099Z,98914.33
2023-02-23T18:51:32.836Z,98910.92
2023-02-23T18:53:38.857Z,98907.86
2023-02-23T18:55:44.996Z,98910.02
2023-02-23T18:57:56.009Z,98907.27
2023-02-23T19:00:03.168Z,98907.20
2023-02-23T19:02:13.444Z,98910.81
2023-02-23T19:04:30.695Z,98907.92
2023-02-23T19:06:39.815Z,98907.60
2023-02-23T19:08:49.547Z,98902.79
2023-02-23T19:10:57.648Z,98902.23
2023-02-23T19:13:04.108Z,98906.37
2023-02-23T19:15:12.068Z,98904.55
2023-02-23T19:17:17.790Z,98909.61
2023-02-23T19:19:26.892Z,98908.42
2023-02-23T19:21:35.560Z,98911.05
2023-02-23T19:23:42.344Z,98913.45
2023-02-23T19:25:49.995Z,98912.48
2023-02-23T19:27:55.633Z,98915.52
2023-02-23T19:30:02.894Z,98914.76
2023-02-23T19:32:20.547Z,98914.36
2023-02-23T19:34:34.389Z,98912.33
2023-02-23T19:36:44.660Z,98919.09
2023-02-23T19:38:52.846Z,98917.89
2023-02-23T19:41:03.232Z,98917.38
2023-02-23T19:43:10.452Z,98914.84
2023-02-23T19:45:17.674Z,98912.92
2023-02-23T19:47:24.413Z,98908.84
2023-02-23T19:49:31.850Z,98910.80
2023-02-23T19:51:40.906Z,98911.61
2023-02-23T19:53:47.140Z,98910.91
2023-02-23T19:56:05.750Z,98910.14
2023-02-23T19:58:13.992Z,98909.84
2023-02-23T20:00:20.831Z,98910.20
2023-02-23T20:02:29.417Z,98905.13
2023-02-23T20:04:35.616Z,98902.61
2023-02-23T20:06:49.974Z,98901.75
2023-02-23T20:08:59.874Z,98900.77
2023-02-23T20:11:08.631Z,98903.62
2023-02-23T20:13:16.130Z,98901.34
2023-02-23T20:15:22.493Z,98899.66
2023-02-23T20:17:29.910Z,98901.04
2023-02-23T20:19:36.779Z,98900.65
2023-02-23T20:21:43.232Z,98901.48
2023-02-23T20:23:50.930Z,98900.97
2023-02-23T20:25:57.234Z,98900.37
2023-02-23T20:28:04.212Z,98896.98
2023-02-23T20:30:19.429Z,98892.30
2023-02-23T20:32:27.542Z,98890.64
2023-02-23T20:34:37.215Z,98891.98
2023-02-23T20:36:44.883Z,98892.65
2023-02-23T20:38:52.029Z,98893.91
2023-02-23T20:41:07.034Z,98893.31
2023-02-23T20:43:15.826Z,98890.84
2023-02-23T20:45:24.033Z,98888.70
2023-02-23T20:47:31.786Z,98887.15
2023-02-23T20:49:38.479Z,98886.28
2023-02-23T20:51:47.687Z,98879.10
2023-02-23T20:53:53.530Z,98875.29
2023-02-23T20:55:58.784Z,98871.11
2023-02-23T20:58:05.602Z,98866.70
2023-02-23T21:00:15.325Z,98864.74
2023-02-23T21:02:22.916Z,98863.45
2023-02-23T21:04:31.484Z,98861.64
2023-02-23T21:06:37.226Z,98857.99
2023-02-23T21:08:43.254Z,98856.59
2023-02-23T21:10:49.360Z,98856.19
2023-02-23T21:12:56.540Z,98854.55
2023-02-23T21:15:02.906Z,98852.46
2023-02-23T21:17:16.336Z,98847.79
2023-02-23T21:19:22.019Z,98845.96
2023-02-23T21:21:28.014Z,98846.66
2023-02-23T21:23:35.740Z,98846.39
2023-02-23T21:25:45.968Z,98844.17
2023-02-23T21:27:54.259Z,98842.77
2023-02-23T21:30:00.884Z,98841.95
2023-02-23T21:32:07.683Z,98835.32
2023-02-23T21:34:14.216Z,98838.49
2023-02-23T21:36:21.973Z,98839.44
2023-02-23T21:38:28.725Z,98839.39
2023-02-23T21:40:34.671Z,98836.61
2023-02-23T21:42:42.073Z,98837.27
2023-02-23T21:44:47.178Z,98839.04
2023-02-23T21:46:52.171Z,98835.81
2023-02-23T21:48:57.859Z,98838.18
2023-02-23T21:51:06.150Z,98835.77
2023-02-23T21:53:11.518Z,98833.88
2023-02-23T21:55:22.505Z,98842.35
2023-02-23T21:57:29.622Z,98840.60
2023-02-23T21:59:36.156Z,98839.31
2023-02-23T22:01:41.003Z,98832.92
2023-02-23T22:03:46.341Z,98830.58
2023-02-23T22:05:51.077Z,98828.41
2023-02-23T22:07:56.743Z,98827.02
2023-02-23T22:10:01.843Z,98832.09
2023-02-23T22:12:07.382Z,98827.64
2023-02-23T22:14:12.341Z,98829.70
2023-02-23T22:16:19.116Z,98827.20
2023-02-23T22:18:25.299Z,98823.86
2023-02-23T22:20:30.084Z,98820.29
2023-02-23T22:22:34.946Z,98822.01
2023-02-23T22:24:39.630Z,98825.25
2023-02-23T22:26:46.436Z,98820.42
2023-02-23T22:28:51.094Z,98820.56
2023-02-23T22:30:55.809Z,98815.45
2023-02-23T22:33:00.603Z,98813.41
2023-02-23T22:35:06.300Z,98810.70
2023-02-23T22:37:11.164Z,98810.04
2023-02-23T22:39:15.792Z,98806.30
2023-02-23T22:41:20.863Z,98808.06
2023-02-23T22:43:26.332Z,98810.31
2023-02-23T22:45:30.942Z,98808.59
2023-02-23T22:47:36.371Z,98807.80
2023-02-23T22:49:41.085Z,98807.25
2023-02-23T22:51:45.803Z,98805.83
2023-02-23T22:53:50.408Z,98806.38
2023-02-23T22:55:55.564Z,98803.86
2023-02-23T22:58:01.276Z,98802.67
2023-02-23T23:00:07.910Z,98800.19
2023-02-23T23:02:12.551Z,98794.50
2023-02-23T23:04:17.484Z,98790.91
2023-02-23T23:06:22.454Z,98798.30
2023-02-23T23:08:27.155Z,98794.57
2023-02-23T23:10:31.927Z,98793.52
2023-02-23T23:12:37.401Z,98795.21
2023-02-23T23:14:42.081Z,98795.27
2023-02-23T23:16:47.329Z,98798.26
2023-02-23T23:18:54.796Z,98794.71
2023-02-23T23:21:04.632Z,98787.97
2023-02-23T23:23:09.350Z,98788.58
2023-02-23T23:25:14.024Z,98790.65
2023-02-23T23:27:19.302Z,98784.91
2023-02-23T23:29:24.531Z,98789.27
2023-02-23T23:31:30.802Z,98786.04
2023-02-23T23:33:35.525Z,98783.61
2023-02-23T23:35:40.195Z,98784.70
2023-02-23T23:37:44.878Z,98785.01
2023-02-23T23:39:49.567Z,98778.38
2023-02-23T23:41:54.591Z,98778.80
2023-02-23T23:44:01.054Z,98775.55
2023-02-23T23:46:06.602Z,98776.20
2023-02-23T23:48:11.359Z,98775.13
2023-02-23T23:50:17.536Z,98771.02
2023-02-23T23:52:22.153Z,98768.64
2023-02-23T23:54:28.397Z,98763.16
2023-02-23T23:56:34.391Z,98762.86
2023-02-23T23:58:39.173Z,98758.83
